x

Destruction Island, Wa (desw1) Weather Station

2:00 - Sat 22nd Jul 2017 All times are PDT. -7 hours from GMT.

  • Wind
    7mph, 8mph gusts
  • Ar Temp 59°f
  • Sea Pressure 1022.9mb
  • Destruction Island, Wa
  • Destruction Island, Wa

More Historic Weather Station data

Upgrade to MSW Pro to gain access to the past 30 days of data for over 8000 Wavebouys and Weather Stations around the globe.

Join Pro

Comparision Forecast

View Surf forecast
   
Sáb 07/22 2:00 7 8 mph 1022.9mb 59f
1:00 15 15 mph 1022.9mb 58f
12:00 16 17 mph 1022.9mb 58f
11:00 16 17 mph 1022.4mb 59f
10:00 16 16 mph 1022.3mb 58f
9:00 11 13 mph 1022.4mb 58f
8:00 14 15 mph 1022.2mb 58f
7:00 16 17 mph 1021.5mb 58f
6:00 18 20 mph 1021.1mb 57f
5:00 15 16 mph 1021.1mb 57f
4:00 17 18 mph 1020.9mb 57f
3:00 20 22 mph 1020.9mb 58f
2:00 16 17 mph 1020.9mb 57f
1:00 21 22 mph 1020.9mb 58f
12:00 20 21 mph 1021mb 57f
Sex 07/21 11:00 15 16 mph 1021mb 57f
10:00 8 8 mph 1021.2mb 57f
9:00 13 15 mph 1020.8mb 57f
8:00 16 17 mph 1020.8mb 57f
7:00 15 16 mph 1020.8mb 58f
6:00 11 11 mph 1021.1mb 58f
5:00 10 11 mph 1021.5mb 58f
4:00 9 9 mph 1021.8mb 57f
3:00 15 15 mph 1022mb 57f
2:00 17 17 mph 1021.9mb 57f
1:00 20 21 mph 1021.5mb 57f
12:00 14 15 mph 1021.6mb 57f
11:00 11 11 mph 1021.6mb 56f
10:00 10 11 mph 1021.5mb 55f
9:00 9 10 mph 1020.9mb 55f
8:00 5 5 mph 1020.7mb 55f
7:00 3 5 mph 1020.5mb 54f
6:00  -  1 mph 1020.4mb 54f
5:00  -  0 mph 1020mb 55f
4:00 6 6 mph 1020mb 55f
3:00 7 8 mph 1020.5mb 55f
2:00 7 7 mph 1020.7mb 55f
1:00 3 3 mph 1020.8mb 55f
12:00  -  1 mph 1020.9mb 56f
Qui 07/20 11:00 1 1 mph 1020.9mb 58f
10:00  -  0 mph 1021mb 58f
9:00  -  0 mph 1020.9mb 58f
8:00 1 2 mph 1021.1mb 59f
7:00 2 2 mph 1021.3mb 59f
6:00 3 5 mph 1021.5mb 59f
5:00 5 6 mph 1021.8mb 59f
4:00 7 8 mph 1021.9mb 60f
3:00 6 7 mph 1022mb 60f
2:00 9 10 mph 1022mb 57f
1:00 16 17 mph 1021.7mb 58f
12:00 14 15 mph 1021.4mb 58f
11:00 16 16 mph 1020.7mb 56f
10:00 13 14 mph 1020.2mb 56f
9:00 9 10 mph 1019.9mb 55f
8:00 10 10 mph 1019.5mb 55f
7:00 10 11 mph 1019.2mb 55f
6:00 13 14 mph 1018.8mb 55f
5:00 14 15 mph 1018.3mb 56f
4:00 15 16 mph 1017.8mb 56f
3:00 17 18 mph 1017.6mb 56f
2:00 17 17 mph 1017.7mb 57f
1:00 15 16 mph 1017.6mb 58f
12:00 13 14 mph 1017.7mb 58f
Qua 07/19 11:00 11 11 mph 1017.8mb 57f
10:00 9 10 mph 1018mb 57f
9:00 7 8 mph 1017.9mb 58f
8:00 6 6 mph 1017.9mb 59f
7:00 6 6 mph 1018.1mb 59f
6:00 2 3 mph 1018.4mb 60f
5:00 5 5 mph 1018.7mb 60f
4:00 7 7 mph 1019.2mb 60f
3:00 13 13 mph 1019.3mb 59f
2:00 15 15 mph 1019.5mb 59f
1:00 13 13 mph 1019.8mb 57f
12:00 8 9 mph 1019.8mb 62f
11:00 9 9 mph 1019.9mb 60f
10:00 5 6 mph 1020.1mb 59f
9:00 6 6 mph 1020.3mb 58f
8:00 8 8 mph 1020.3mb 55f
7:00 6 7 mph 1020.3mb 54f
6:00 7 7 mph 1020mb 53f
5:00 8 8 mph 1019.8mb 53f
4:00 8 8 mph 1019.4mb 53f
3:00 7 7 mph 1019.4mb 54f
2:00 5 6 mph 1019.5mb 55f
1:00 6 6 mph 1019.6mb 56f
12:00 6 6 mph 1019.6mb 56f
Ter 07/18 11:00 7 7 mph 1019.5mb 55f